CFG8MH EDDL-LGKO
Flight info
| Callsign | CFG8MH |
|---|---|
| Flight time | N/A |
| Altitude | 35000 |
| Route | DODEN1T DODEN Y853 BOMBI DCT DETEV DCT DINKU DCT BESNI DCT GOMIG DCT BEDOX DCT GUBOK DCT VEBAR DCT VABEK UL603 OLOTA DCT RUGAS DCT GIKAS DCT MES UN139 LURUS L995 KOPAR |
| Aircraft | A21N/M-SDE3FGHIRWY/LB1 |
Departure
| Time | 2026-05-04 14:27 |
|---|---|
| Airport | Düsseldorf Airport (EDDL) |
Arrival
| Time | N/A |
|---|---|
| Airport | Kos International Airport "Ippokratis" (LGKO) |
| Time | Latitude | Longitude | Altitude | Speed | Heading |
|---|---|---|---|---|---|
| 2026-05-04 13:59 | 51.27942 | 6.76177 | 153 ft | 0 kts | 90° |
| 2026-05-04 14:17 | 51.27942 | 6.76172 | 153 ft | 2 kts | 90° |
| 2026-05-04 14:17 | 51.27942 | 6.76149 | 153 ft | 2 kts | 90° |
| 2026-05-04 14:17 | 51.27943 | 6.76101 | 153 ft | 2 kts | 91° |
| 2026-05-04 14:18 | 51.27943 | 6.76085 | 153 ft | 2 kts | 91° |
| 2026-05-04 14:18 | 51.27925 | 6.76049 | 153 ft | 2 kts | 14° |
| 2026-05-04 14:19 | 51.27913 | 6.76047 | 153 ft | 0 kts | 0° |
| 2026-05-04 14:21 | 51.27915 | 6.76047 | 153 ft | 0 kts | 0° |
| 2026-05-04 14:21 | 51.27932 | 6.76047 | 153 ft | 4 kts | 0° |
| 2026-05-04 14:21 | 51.27976 | 6.76047 | 153 ft | 8 kts | 360° |
| 2026-05-04 14:21 | 51.28006 | 6.76047 | 153 ft | 4 kts | 0° |
| 2026-05-04 14:22 | 51.28043 | 6.76047 | 153 ft | 6 kts | 0° |
| 2026-05-04 14:22 | 51.28095 | 6.76039 | 153 ft | 8 kts | 351° |
| 2026-05-04 14:22 | 51.28153 | 6.76073 | 153 ft | 10 kts | 50° |
| 2026-05-04 14:22 | 51.28204 | 6.76176 | 153 ft | 13 kts | 52° |
| 2026-05-04 14:23 | 51.28334 | 6.76452 | 153 ft | 17 kts | 53° |
| 2026-05-04 14:23 | 51.28413 | 6.76615 | 153 ft | 19 kts | 53° |
| 2026-05-04 14:23 | 51.28497 | 6.76793 | 153 ft | 20 kts | 52° |
| 2026-05-04 14:24 | 51.28589 | 6.76986 | 153 ft | 22 kts | 53° |
| 2026-05-04 14:24 | 51.28685 | 6.77186 | 153 ft | 23 kts | 53° |
| 2026-05-04 14:24 | 51.28785 | 6.77396 | 153 ft | 24 kts | 53° |
| 2026-05-04 14:24 | 51.28888 | 6.77614 | 154 ft | 25 kts | 53° |
| 2026-05-04 14:25 | 51.28991 | 6.77831 | 154 ft | 25 kts | 52° |
| 2026-05-04 14:25 | 51.29195 | 6.78249 | 154 ft | 23 kts | 44° |
| 2026-05-04 14:25 | 51.29320 | 6.78399 | 154 ft | 21 kts | 36° |
| 2026-05-04 14:26 | 51.29409 | 6.78474 | 154 ft | 13 kts | 10° |
| 2026-05-04 14:26 | 51.29476 | 6.78426 | 154 ft | 10 kts | 288° |
| 2026-05-04 14:26 | 51.29447 | 6.78320 | 154 ft | 13 kts | 233° |
| 2026-05-04 14:26 | 51.29262 | 6.77930 | 154 ft | 80 kts | 232° |
| 2026-05-04 14:27 | 51.28787 | 6.76934 | 154 ft | 143 kts | 233° |
| 2026-05-04 14:27 | 51.28089 | 6.75482 | 361 ft | 175 kts | 232° |
| 2026-05-04 14:27 | 51.27756 | 6.74794 | 711 ft | 170 kts | 233° |
| 2026-05-04 14:27 | 51.27526 | 6.74317 | 952 ft | 169 kts | 233° |
| 2026-05-04 14:28 | 51.26809 | 6.72834 | 1624 ft | 171 kts | 232° |
| 2026-05-04 14:28 | 51.26078 | 6.71258 | 1953 ft | 184 kts | 234° |
| 2026-05-04 14:28 | 51.25314 | 6.69567 | 2321 ft | 195 kts | 234° |
| 2026-05-04 14:28 | 51.24479 | 6.67721 | 2629 ft | 211 kts | 233° |
| 2026-05-04 14:29 | 51.22357 | 6.64020 | 3300 ft | 245 kts | 205° |
| 2026-05-04 14:29 | 51.18856 | 6.63787 | 4426 ft | 263 kts | 174° |
| 2026-05-04 14:30 | 51.17052 | 6.64123 | 5128 ft | 266 kts | 174° |
| 2026-05-04 14:30 | 51.15275 | 6.64840 | 5883 ft | 268 kts | 153° |
| 2026-05-04 14:30 | 51.13067 | 6.69490 | 7305 ft | 279 kts | 102° |
| 2026-05-04 14:31 | 51.13068 | 6.72589 | 8001 ft | 284 kts | 88° |
| 2026-05-04 14:31 | 51.13374 | 6.78902 | 9347 ft | 290 kts | 88° |
| 2026-05-04 14:32 | 51.13446 | 6.85348 | 10458 ft | 300 kts | 103° |
| 2026-05-04 14:32 | 51.12869 | 6.88632 | 10773 ft | 314 kts | 110° |
| 2026-05-04 14:32 | 51.12152 | 6.92018 | 11046 ft | 329 kts | 110° |
| 2026-05-04 14:32 | 51.11431 | 6.95491 | 11390 ft | 341 kts | 109° |
| 2026-05-04 14:33 | 51.10714 | 6.99110 | 11986 ft | 345 kts | 109° |
| 2026-05-04 14:33 | 51.10009 | 7.02781 | 12582 ft | 348 kts | 108° |
| 2026-05-04 14:33 | 51.09313 | 7.06470 | 13144 ft | 351 kts | 108° |
| 2026-05-04 14:33 | 51.08617 | 7.10203 | 13696 ft | 354 kts | 108° |
| 2026-05-04 14:34 | 51.07911 | 7.13999 | 14240 ft | 358 kts | 108° |
| 2026-05-04 14:34 | 51.07205 | 7.17814 | 14776 ft | 361 kts | 108° |
| 2026-05-04 14:34 | 51.06511 | 7.21562 | 15286 ft | 364 kts | 108° |
| 2026-05-04 14:34 | 51.05777 | 7.25508 | 15793 ft | 367 kts | 108° |
| 2026-05-04 14:35 | 51.05045 | 7.29438 | 16285 ft | 371 kts | 109° |
| 2026-05-04 14:35 | 51.04311 | 7.33367 | 16780 ft | 373 kts | 109° |
| 2026-05-04 14:35 | 51.03565 | 7.37362 | 17262 ft | 376 kts | 109° |
| 2026-05-04 14:35 | 51.02813 | 7.41374 | 17723 ft | 379 kts | 109° |
| 2026-05-04 14:36 | 51.02069 | 7.45335 | 18175 ft | 381 kts | 109° |
| 2026-05-04 14:36 | 51.01300 | 7.49423 | 18636 ft | 384 kts | 109° |
| 2026-05-04 14:36 | 51.00541 | 7.53442 | 19068 ft | 386 kts | 109° |
| 2026-05-04 14:36 | 50.99764 | 7.57550 | 19492 ft | 389 kts | 109° |
| 2026-05-04 14:37 | 50.98975 | 7.61709 | 19916 ft | 392 kts | 109° |
| 2026-05-04 14:37 | 50.98189 | 7.65845 | 20320 ft | 394 kts | 110° |
| 2026-05-04 14:37 | 50.97502 | 7.69298 | 20644 ft | 395 kts | 114° |
| 2026-05-04 14:37 | 50.96192 | 7.73048 | 20979 ft | 391 kts | 131° |
| 2026-05-04 14:38 | 50.94262 | 7.76084 | 21360 ft | 387 kts | 147° |
| 2026-05-04 14:38 | 50.92010 | 7.78404 | 21751 ft | 386 kts | 152° |
| 2026-05-04 14:38 | 50.89718 | 7.80618 | 22118 ft | 388 kts | 152° |
| 2026-05-04 14:38 | 50.87396 | 7.82857 | 22489 ft | 391 kts | 152° |
| 2026-05-04 14:39 | 50.85097 | 7.85086 | 22821 ft | 394 kts | 152° |
| 2026-05-04 14:39 | 50.82707 | 7.87413 | 23161 ft | 397 kts | 152° |
| 2026-05-04 14:39 | 50.80345 | 7.89722 | 23502 ft | 399 kts | 152° |
| 2026-05-04 14:40 | 50.75629 | 7.94335 | 24202 ft | 403 kts | 152° |
| 2026-05-04 14:40 | 50.73233 | 7.96673 | 24548 ft | 405 kts | 152° |
| 2026-05-04 14:40 | 50.70833 | 7.99014 | 24898 ft | 407 kts | 152° |
| 2026-05-04 14:40 | 50.68431 | 8.01356 | 25221 ft | 409 kts | 152° |
| 2026-05-04 14:41 | 50.65991 | 8.03732 | 25522 ft | 411 kts | 152° |
| 2026-05-04 14:41 | 50.63561 | 8.06096 | 25814 ft | 413 kts | 153° |
| 2026-05-04 14:41 | 50.58772 | 8.11301 | 26381 ft | 421 kts | 146° |
| 2026-05-04 14:42 | 50.54234 | 8.17202 | 26931 ft | 426 kts | 144° |
| 2026-05-04 14:42 | 50.51962 | 8.20181 | 27180 ft | 428 kts | 144° |
| 2026-05-04 14:42 | 50.49682 | 8.23166 | 27451 ft | 430 kts | 144° |
| 2026-05-04 14:43 | 50.47372 | 8.26188 | 27748 ft | 431 kts | 144° |
| 2026-05-04 14:43 | 50.45091 | 8.29167 | 28002 ft | 433 kts | 144° |
| 2026-05-04 14:43 | 50.42776 | 8.32186 | 28267 ft | 435 kts | 144° |
| 2026-05-04 14:43 | 50.40424 | 8.35248 | 28527 ft | 436 kts | 144° |
| 2026-05-04 14:44 | 50.38097 | 8.38274 | 28773 ft | 438 kts | 144° |
| 2026-05-04 14:44 | 50.35777 | 8.41288 | 29011 ft | 440 kts | 145° |
| 2026-05-04 14:44 | 50.33405 | 8.44365 | 29239 ft | 442 kts | 144° |
| 2026-05-04 14:44 | 50.31043 | 8.47424 | 29461 ft | 444 kts | 145° |
| 2026-05-04 14:45 | 50.28655 | 8.50512 | 29689 ft | 446 kts | 145° |
| 2026-05-04 14:45 | 50.26295 | 8.53561 | 29913 ft | 447 kts | 145° |
| 2026-05-04 14:45 | 50.23888 | 8.56668 | 30205 ft | 447 kts | 145° |
| 2026-05-04 14:45 | 50.21481 | 8.59771 | 30546 ft | 446 kts | 145° |
| 2026-05-04 14:46 | 50.19262 | 8.62625 | 30841 ft | 446 kts | 145° |
| 2026-05-04 14:46 | 50.16898 | 8.65662 | 31153 ft | 445 kts | 146° |
| 2026-05-04 14:46 | 50.14498 | 8.68741 | 31484 ft | 444 kts | 146° |
| 2026-05-04 14:46 | 50.12120 | 8.71827 | 31806 ft | 444 kts | 144° |
| 2026-05-04 14:47 | 50.09852 | 8.75116 | 32080 ft | 446 kts | 140° |
| 2026-05-04 14:47 | 50.07744 | 8.78629 | 32349 ft | 449 kts | 136° |